Skip Navigation LinksHome page > Weather > Current weather Skip Navigation Links

Current Weather

Chicago O'Hare Intl, Chicago

For information only: do not use for flight planning or navigation.
Latest weather
Observation time Friday, August 26, 2016 7:51 AM CDT
Local time Friday, August 26, 2016 8:47 AM CDT
Flight conditions Visual Meteorological Conditions
Winds
Wind direction North (360°)
Wind speed 5 mph
Visibility 10 mi.
Sky condition
Ceiling 25,000 ft. broken clouds
Cloud layer scattered clouds 20,000 ft.
Cloud layer broken clouds 25,000 ft.
Temperature 68°F
Dewpoint 60°F
Altimeter 30.16 in.Hg
Derived measurements
Relative humidity 76%
Density altitude 1225 ft.
Sea-level pressure 30.15 in.Hg
Remarks
Automated weather observing station with precipitation discriminator.
METAR KORD 261251Z 36004KT 10SM SCT200 BKN250 20/16 A3016 RMK AO2 SLP211 T02000156

Settings

Location code

InnerDrive.Weather 4.0.5722.1 Release CLR 4.0.30319.34209
Copyright ©2015 Inner Drive Technology. All rights reserved. Portions Copyright ©1986-2015 David Braverman.

Find weather

Site navigation


Skip Navigation Links

Place info

Page info

PayPal - The safer, easier way to pay online!

Return home.

Copyright ©2016 Inner Drive Technology. Purveyors of fine, hand-crafted computer software. Page printed 2016-08-26T13:47:11 UTC.